createdAt,value
2019-05-12T00:04:20.699Z,13.57
2019-05-12T00:09:22.137Z,14.60
2019-05-12T00:14:23.613Z,13.20
2019-05-12T00:19:25.161Z,14.30
2019-05-12T00:24:27.988Z,14.83
2019-05-12T00:29:29.794Z,14.23
2019-05-12T00:34:32.158Z,14.43
2019-05-12T00:39:33.811Z,14.87
2019-05-12T00:44:35.376Z,14.30
2019-05-12T00:49:37.910Z,13.37
2019-05-12T00:54:39.641Z,14.50
2019-05-12T00:59:41.086Z,14.30
2019-05-12T01:04:42.715Z,14.27
2019-05-12T01:09:44.259Z,14.27
2019-05-12T01:14:47.784Z,14.40
2019-05-12T01:19:49.402Z,14.53
2019-05-12T01:24:50.952Z,14.10
2019-05-12T01:29:53.363Z,13.47
2019-05-12T01:34:57.777Z,13.40
2019-05-12T01:40:00.183Z,14.43
2019-05-12T01:45:02.801Z,13.17
2019-05-12T01:50:05.246Z,14.60
2019-05-12T01:55:08.160Z,13.10
2019-05-12T02:00:12.640Z,14.23
2019-05-12T02:05:15.213Z,14.00
2019-05-12T02:10:18.096Z,13.70
2019-05-12T02:15:19.937Z,14.60
2019-05-12T02:20:21.771Z,14.63
2019-05-12T02:25:23.353Z,13.60
2019-05-12T02:30:24.916Z,13.00
2019-05-12T02:35:26.822Z,12.27
2019-05-12T02:40:28.347Z,12.80
2019-05-12T02:45:29.959Z,14.17
2019-05-12T02:50:35.321Z,14.77
2019-05-12T02:55:37.901Z,13.27
2019-05-12T03:00:39.476Z,14.03
2019-05-12T03:05:44.392Z,13.70
2019-05-12T03:10:47.550Z,13.33
2019-05-12T03:15:48.971Z,14.20
2019-05-12T03:20:54.818Z,14.50
2019-05-12T03:25:56.472Z,13.80
2019-05-12T03:30:58.588Z,12.93
2019-05-12T03:36:01.605Z,12.27
2019-05-12T03:41:05.326Z,14.90
2019-05-12T03:46:07.013Z,14.40
2019-05-12T03:51:08.586Z,13.97
2019-05-12T03:56:10.194Z,12.40
2019-05-12T04:01:14.765Z,12.50
2019-05-12T04:06:15.693Z,13.10
2019-05-12T04:11:17.379Z,14.60
2019-05-12T04:16:19.264Z,14.80
2019-05-12T04:21:20.808Z,12.80
2019-05-12T04:26:25.089Z,12.43
2019-05-12T04:31:25.923Z,11.90
2019-05-12T04:36:27.417Z,13.60
2019-05-12T04:41:29.396Z,14.20
2019-05-12T04:46:34.372Z,12.73
2019-05-12T04:51:35.212Z,13.40
2019-05-12T04:56:36.910Z,12.63
2019-05-12T05:01:38.578Z,13.00
2019-05-12T05:06:40.146Z,13.77
2019-05-12T05:11:44.796Z,13.30
2019-05-12T05:16:46.165Z,13.80
2019-05-12T05:21:48.564Z,13.37
2019-05-12T05:26:51.229Z,13.27
2019-05-12T05:31:53.380Z,12.23
2019-05-12T05:37:01.468Z,12.07
2019-05-12T05:42:04.658Z,12.67
2019-05-12T05:47:08.965Z,13.30
2019-05-12T05:52:13.829Z,12.93
2019-05-12T05:57:24.961Z,14.30
2019-05-12T06:02:32.001Z,13.63
2019-05-12T06:07:34.916Z,14.10
2019-05-12T06:12:33.428Z,13.33
2019-05-12T06:17:35.089Z,14.67
2019-05-12T06:22:40.243Z,15.03
2019-05-12T06:27:45.304Z,14.10
2019-05-12T06:32:55.619Z,14.27
2019-05-12T06:38:01.790Z,17.47
2019-05-12T06:43:04.398Z,15.50
2019-05-12T06:48:09.408Z,14.53
2019-05-12T06:53:10.878Z,17.30
2019-05-12T06:58:14.049Z,17.23
2019-05-12T07:03:19.349Z,16.50
2019-05-12T07:08:26.496Z,17.47
2019-05-12T07:13:29.214Z,17.13
2019-05-12T07:18:32.433Z,16.47
2019-05-12T07:23:30.359Z,15.90
2019-05-12T07:28:36.274Z,15.87
2019-05-12T07:33:41.316Z,18.80
2019-05-12T07:38:40.732Z,20.13
2019-05-12T07:43:44.392Z,23.90
2019-05-12T07:48:50.715Z,22.83
2019-05-12T07:53:57.538Z,23.60
2019-05-12T07:58:57.328Z,22.50
2019-05-12T08:04:01.485Z,25.10
2019-05-12T08:09:06.091Z,24.53
2019-05-12T08:14:13.847Z,25.40
2019-05-12T08:19:14.968Z,27.20
2019-05-12T08:24:14.713Z,27.43
2019-05-12T08:29:21.338Z,27.57
2019-05-12T08:34:19.654Z,27.30
2019-05-12T08:39:25.350Z,27.83
2019-05-12T08:44:33.712Z,29.00
2019-05-12T08:49:34.147Z,29.53
2019-05-12T08:54:39.680Z,29.70
2019-05-12T08:59:44.158Z,29.10
2019-05-12T09:05:07.968Z,29.43
2019-05-12T09:10:09.974Z,30.90
2019-05-12T09:15:13.574Z,31.13
2019-05-12T09:20:15.306Z,31.67
2019-05-12T09:25:16.815Z,32.40
2019-05-12T09:30:23.901Z,32.30
2019-05-12T09:35:28.722Z,32.60
2019-05-12T09:40:37.167Z,33.50
2019-05-12T09:45:51.377Z,32.60
2019-05-12T09:50:46.415Z,33.00
2019-05-12T09:55:47.641Z,34.60
2019-05-12T10:00:49.619Z,34.97
2019-05-12T10:05:53.368Z,33.10
2019-05-12T10:10:55.422Z,33.60
2019-05-12T10:15:58.837Z,34.23
2019-05-12T10:21:00.484Z,34.33
2019-05-12T10:26:09.956Z,34.57
2019-05-12T10:31:05.599Z,35.53
2019-05-12T10:36:08.531Z,33.67
2019-05-12T10:41:12.991Z,35.13
2019-05-12T10:46:24.449Z,35.33
2019-05-12T10:51:24.022Z,35.30
2019-05-12T10:56:26.422Z,35.73
2019-05-12T11:01:29.362Z,35.40
2019-05-12T11:06:31.024Z,34.73
2019-05-12T11:11:41.720Z,36.67
2019-05-12T11:16:36.230Z,37.73
2019-05-12T11:21:38.076Z,37.00
2019-05-12T11:26:40.071Z,37.20
2019-05-12T11:31:44.089Z,37.57
2019-05-12T11:36:45.644Z,37.83
2019-05-12T11:41:47.281Z,38.07
2019-05-12T11:46:49.368Z,37.30
2019-05-12T11:51:51.043Z,37.60
2019-05-12T11:56:53.577Z,36.20
2019-05-12T12:01:56.150Z,35.83
2019-05-12T12:07:05.781Z,36.63
2019-05-12T12:12:08.288Z,37.73
2019-05-12T12:17:13.745Z,37.97
2019-05-12T12:22:20.378Z,37.80
2019-05-12T12:27:20.457Z,37.67
2019-05-12T12:32:23.272Z,39.60
2019-05-12T12:37:25.716Z,38.17
2019-05-12T12:42:30.384Z,36.30
2019-05-12T12:47:35.936Z,37.73
2019-05-12T12:52:38.791Z,38.47
2019-05-12T12:57:40.321Z,38.70
2019-05-12T13:02:47.431Z,37.43
2019-05-12T13:07:44.859Z,36.80
2019-05-12T13:12:50.472Z,37.70
2019-05-12T13:17:50.783Z,37.10
2019-05-12T13:22:53.634Z,37.90
2019-05-12T13:27:55.280Z,38.73
2019-05-12T13:32:57.130Z,37.90
2019-05-12T13:38:00.594Z,37.80
2019-05-12T13:43:09.249Z,37.67
2019-05-12T13:48:15.923Z,38.60
2019-05-12T13:53:14.090Z,38.80
2019-05-12T13:58:15.853Z,38.10
2019-05-12T14:03:17.402Z,37.20
2019-05-12T14:08:18.946Z,39.30
2019-05-12T14:13:20.663Z,39.90
2019-05-12T14:18:23.117Z,38.80
2019-05-12T14:23:24.689Z,36.97
2019-05-12T14:28:26.263Z,38.43
2019-05-12T14:33:29.915Z,37.60
2019-05-12T14:38:33.657Z,37.43
2019-05-12T14:43:34.921Z,37.03
2019-05-12T14:48:40.423Z,36.80
2019-05-12T14:53:40.553Z,38.10
2019-05-12T14:58:44.124Z,37.10
2019-05-12T15:03:47.688Z,36.87
2019-05-12T15:08:50.219Z,37.30
2019-05-12T15:13:54.001Z,36.57
2019-05-12T15:18:57.362Z,36.73
2019-05-12T15:23:58.997Z,37.03
2019-05-12T15:29:05.361Z,36.53
2019-05-12T15:34:04.325Z,37.27
2019-05-12T15:39:07.059Z,36.70
2019-05-12T15:44:09.962Z,38.07
2019-05-12T15:49:11.891Z,37.47
2019-05-12T15:54:14.647Z,37.67
2019-05-12T15:59:17.421Z,37.50
2019-05-12T16:04:19.266Z,37.20
2019-05-12T16:09:20.820Z,37.73
2019-05-12T16:14:23.333Z,38.13
2019-05-12T16:19:26.514Z,38.63
2019-05-12T16:24:28.094Z,37.93
2019-05-12T16:29:38.907Z,37.07
2019-05-12T16:34:44.853Z,37.90
2019-05-12T16:39:47.379Z,37.80
2019-05-12T16:44:48.374Z,38.30
2019-05-12T16:49:49.976Z,38.07
2019-05-12T16:54:53.901Z,37.63
2019-05-12T17:00:02.379Z,37.20
2019-05-12T17:04:59.445Z,36.90
2019-05-12T17:10:11.561Z,37.53
2019-05-12T17:15:07.535Z,38.63
2019-05-12T17:20:13.588Z,38.70
2019-05-12T17:25:15.792Z,38.63
2019-05-12T17:30:18.387Z,41.00
2019-05-12T17:35:25.759Z,38.33
2019-05-12T17:40:24.413Z,37.73
2019-05-12T17:45:26.520Z,37.23
2019-05-12T17:50:28.396Z,38.00
2019-05-12T17:55:30.094Z,39.00
2019-05-12T18:00:33.593Z,39.10
2019-05-12T18:05:36.392Z,38.03
2019-05-12T18:10:39.545Z,37.50
2019-05-12T18:15:41.598Z,38.17
2019-05-12T18:20:44.529Z,37.73
2019-05-12T18:25:46.584Z,39.23
2019-05-12T18:30:48.365Z,39.13
2019-05-12T18:35:50.237Z,38.60
2019-05-12T18:40:54.100Z,38.13
2019-05-12T18:46:04.829Z,39.40
2019-05-12T18:51:02.826Z,38.80
2019-05-12T18:56:04.719Z,38.90
2019-05-12T19:01:07.104Z,40.40
2019-05-12T19:06:08.937Z,38.70
2019-05-12T19:11:19.891Z,38.90
2019-05-12T19:16:20.976Z,38.93
2019-05-12T19:21:24.789Z,38.00
2019-05-12T19:26:26.814Z,38.03
2019-05-12T19:31:28.659Z,38.90
2019-05-12T19:36:36.024Z,38.47
2019-05-12T19:41:36.381Z,37.83
2019-05-12T19:46:39.931Z,41.30
2019-05-12T19:51:43.784Z,37.37
2019-05-12T19:56:45.315Z,35.97
2019-05-12T20:01:46.974Z,36.43
2019-05-12T20:06:48.530Z,36.80
2019-05-12T20:11:50.198Z,34.27
2019-05-12T20:16:54.270Z,31.67
2019-05-12T20:21:55.331Z,32.20
2019-05-12T20:26:56.915Z,30.60
2019-05-12T20:31:58.982Z,27.47
2019-05-12T20:37:06.018Z,27.10
2019-05-12T20:42:05.244Z,27.20
2019-05-12T20:47:08.902Z,26.47
2019-05-12T20:52:10.492Z,25.50
2019-05-12T20:57:14.041Z,25.10
2019-05-12T21:02:16.035Z,24.70
2019-05-12T21:07:21.727Z,24.60
2019-05-12T21:12:21.464Z,23.60
2019-05-12T21:17:38.897Z,23.33
2019-05-12T21:22:26.619Z,23.30
2019-05-12T21:27:28.173Z,23.90
2019-05-12T21:32:29.667Z,23.50
2019-05-12T21:37:31.415Z,22.13
2019-05-12T21:42:33.832Z,24.00
2019-05-12T21:47:42.774Z,24.27
2019-05-12T21:52:40.338Z,23.87
2019-05-12T21:57:43.737Z,23.17
2019-05-12T22:02:45.622Z,22.53
2019-05-12T22:07:47.194Z,21.20
2019-05-12T22:12:48.874Z,20.73
2019-05-12T22:17:59.861Z,21.43
2019-05-12T22:23:06.931Z,21.50
2019-05-12T22:28:10.006Z,20.87
2019-05-12T22:33:10.927Z,20.20
2019-05-12T22:38:16.611Z,20.27
2019-05-12T22:43:16.490Z,18.43
2019-05-12T22:48:18.858Z,20.97
2019-05-12T22:53:25.700Z,20.03
2019-05-12T22:58:25.576Z,18.80
2019-05-12T23:03:27.807Z,19.70
2019-05-12T23:08:29.358Z,19.30
2019-05-12T23:13:32.347Z,20.67
2019-05-12T23:18:34.975Z,19.47
2019-05-12T23:23:36.474Z,20.57
2019-05-12T23:28:40.378Z,18.63
2019-05-12T23:33:43.975Z,18.80
2019-05-12T23:38:44.819Z,17.63
2019-05-12T23:43:46.382Z,18.57
2019-05-12T23:48:49.544Z,17.03
2019-05-12T23:53:51.137Z,15.50
2019-05-12T23:58:53.843Z,17.33
